sensor_id;sensor_type;location;lat;lon;timestamp;pressure;altitude;pressure_sealevel;temperature
70668;BMP280;58242;51.250;-1.118;2024-03-02T00:00:10;97659.50;;;11.31
70668;BMP280;58242;51.250;-1.118;2024-03-02T00:02:40;97654.91;;;11.25
70668;BMP280;58242;51.250;-1.118;2024-03-02T00:05:06;97645.34;;;11.21
70668;BMP280;58242;51.250;-1.118;2024-03-02T00:07:32;97649.16;;;11.16
70668;BMP280;58242;51.250;-1.118;2024-03-02T00:09:58;97647.28;;;11.10
70668;BMP280;58242;51.250;-1.118;2024-03-02T00:12:23;97644.97;;;11.02
70668;BMP280;58242;51.250;-1.118;2024-03-02T00:14:48;97639.63;;;10.95
70668;BMP280;58242;51.250;-1.118;2024-03-02T00:17:21;97636.19;;;10.88
70668;BMP280;58242;51.250;-1.118;2024-03-02T00:19:49;97638.88;;;10.81
70668;BMP280;58242;51.250;-1.118;2024-03-02T00:22:15;97636.94;;;10.78
70668;BMP280;58242;51.250;-1.118;2024-03-02T00:24:40;97624.75;;;10.77
70668;BMP280;58242;51.250;-1.118;2024-03-02T00:27:07;97620.56;;;10.79
70668;BMP280;58242;51.250;-1.118;2024-03-02T00:29:32;97633.53;;;10.84
70668;BMP280;58242;51.250;-1.118;2024-03-02T00:31:58;97636.19;;;10.88
70668;BMP280;58242;51.250;-1.118;2024-03-02T00:34:23;97625.88;;;10.90
70668;BMP280;58242;51.250;-1.118;2024-03-02T00:36:49;97624.75;;;10.91
70668;BMP280;58242;51.250;-1.118;2024-03-02T00:39:15;97620.16;;;10.91
70668;BMP280;58242;51.250;-1.118;2024-03-02T00:41:42;97627.41;;;10.91
70668;BMP280;58242;51.250;-1.118;2024-03-02T00:44:09;97623.22;;;10.90
70668;BMP280;58242;51.250;-1.118;2024-03-02T00:46:40;97611.75;;;10.89
70668;BMP280;58242;51.250;-1.118;2024-03-02T00:49:23;97610.63;;;10.83
70668;BMP280;58242;51.250;-1.118;2024-03-02T00:51:50;97609.09;;;10.79
70668;BMP280;58242;51.250;-1.118;2024-03-02T00:54:20;97617.88;;;10.73
70668;BMP280;58242;51.250;-1.118;2024-03-02T00:56:47;97607.97;;;10.66
70668;BMP280;58242;51.250;-1.118;2024-03-02T00:59:12;97604.53;;;10.62
70668;BMP280;58242;51.250;-1.118;2024-03-02T01:01:37;97599.16;;;10.59
70668;BMP280;58242;51.250;-1.118;2024-03-02T01:04:03;97595.34;;;10.57
70668;BMP280;58242;51.250;-1.118;2024-03-02T01:06:30;97584.66;;;10.53
70668;BMP280;58242;51.250;-1.118;2024-03-02T01:08:55;97593.81;;;10.52
70668;BMP280;58242;51.250;-1.118;2024-03-02T01:11:20;97591.53;;;10.47
70668;BMP280;58242;51.250;-1.118;2024-03-02T01:13:49;97588.47;;;10.42
70668;BMP280;58242;51.250;-1.118;2024-03-02T01:16:14;97590.78;;;10.40
70668;BMP280;58242;51.250;-1.118;2024-03-02T01:18:41;97591.16;;;10.39
70668;BMP280;58242;51.250;-1.118;2024-03-02T01:21:06;97588.47;;;10.39
70668;BMP280;58242;51.250;-1.118;2024-03-02T01:23:32;97591.50;;;10.41
70668;BMP280;58242;51.250;-1.118;2024-03-02T01:25:57;97596.47;;;10.42
70668;BMP280;58242;51.250;-1.118;2024-03-02T01:28:23;97593.81;;;10.45
70668;BMP280;58242;51.250;-1.118;2024-03-02T01:30:48;97597.63;;;10.48
70668;BMP280;58242;51.250;-1.118;2024-03-02T01:33:14;97598.38;;;10.52
70668;BMP280;58242;51.250;-1.118;2024-03-02T01:35:40;97601.09;;;10.59
70668;BMP280;58242;51.250;-1.118;2024-03-02T01:38:05;97594.59;;;10.63
70668;BMP280;58242;51.250;-1.118;2024-03-02T01:40:33;97591.53;;;10.68
70668;BMP280;58242;51.250;-1.118;2024-03-02T01:42:58;97597.28;;;10.73
70668;BMP280;58242;51.250;-1.118;2024-03-02T01:45:24;97591.53;;;10.75
70668;BMP280;58242;51.250;-1.118;2024-03-02T01:47:49;97596.09;;;10.74
70668;BMP280;58242;51.250;-1.118;2024-03-02T01:50:16;97590.78;;;10.74
70668;BMP280;58242;51.250;-1.118;2024-03-02T01:52:49;97588.50;;;10.69
70668;BMP280;58242;51.250;-1.118;2024-03-02T01:55:15;97592.31;;;10.68
70668;BMP280;58242;51.250;-1.118;2024-03-02T01:57:40;97589.63;;;10.68
70668;BMP280;58242;51.250;-1.118;2024-03-02T02:00:06;97586.59;;;10.66
70668;BMP280;58242;51.250;-1.118;2024-03-02T02:02:31;97580.09;;;10.67
70668;BMP280;58242;51.250;-1.118;2024-03-02T02:04:57;97576.28;;;10.68
70668;BMP280;58242;51.250;-1.118;2024-03-02T02:07:22;97569.41;;;10.67
70668;BMP280;58242;51.250;-1.118;2024-03-02T02:09:48;97575.16;;;10.66
70668;BMP280;58242;51.250;-1.118;2024-03-02T02:12:13;97560.25;;;10.68
70668;BMP280;58242;51.250;-1.118;2024-03-02T02:14:38;97573.25;;;10.70
70668;BMP280;58242;51.250;-1.118;2024-03-02T02:17:05;97575.13;;;10.73
70668;BMP280;58242;51.250;-1.118;2024-03-02T02:19:30;97575.50;;;10.75
70668;BMP280;58242;51.250;-1.118;2024-03-02T02:21:56;97582.78;;;10.77
70668;BMP280;58242;51.250;-1.118;2024-03-02T02:24:21;97573.22;;;10.80
70668;BMP280;58242;51.250;-1.118;2024-03-02T02:26:46;97550.31;;;10.79
70668;BMP280;58242;51.250;-1.118;2024-03-02T02:29:12;97547.28;;;10.80
70668;BMP280;58242;51.250;-1.118;2024-03-02T02:31:38;97548.81;;;10.81
70668;BMP280;58242;51.250;-1.118;2024-03-02T02:34:04;97544.59;;;10.84
70668;BMP280;58242;51.250;-1.118;2024-03-02T02:36:29;97548.78;;;10.88
70668;BMP280;58242;51.250;-1.118;2024-03-02T02:38:55;97544.97;;;10.93
70668;BMP280;58242;51.250;-1.118;2024-03-02T02:41:20;97544.56;;;10.97
70668;BMP280;58242;51.250;-1.118;2024-03-02T02:43:45;97531.59;;;10.99
70668;BMP280;58242;51.250;-1.118;2024-03-02T02:46:11;97533.13;;;11.00
70668;BMP280;58242;51.250;-1.118;2024-03-02T02:48:36;97527.78;;;11.04
70668;BMP280;58242;51.250;-1.118;2024-03-02T02:51:01;97520.91;;;11.03
70668;BMP280;58242;51.250;-1.118;2024-03-02T02:53:27;97509.09;;;11.00
70668;BMP280;58242;51.250;-1.118;2024-03-02T02:55:52;97509.06;;;10.97
70668;BMP280;58242;51.250;-1.118;2024-03-02T02:58:18;97509.47;;;10.95
70668;BMP280;58242;51.250;-1.118;2024-03-02T03:00:43;97501.06;;;10.93
70668;BMP280;58242;51.250;-1.118;2024-03-02T03:03:08;97501.84;;;10.91
70668;BMP280;58242;51.250;-1.118;2024-03-02T03:05:34;97491.53;;;10.89
70668;BMP280;58242;51.250;-1.118;2024-03-02T03:07:59;97489.25;;;10.88
70668;BMP280;58242;51.250;-1.118;2024-03-02T03:10:24;97482.38;;;10.87
70668;BMP280;58242;51.250;-1.118;2024-03-02T03:12:51;97470.16;;;10.86
70668;BMP280;58242;51.250;-1.118;2024-03-02T03:15:17;97466.34;;;10.83
70668;BMP280;58242;51.250;-1.118;2024-03-02T03:17:42;97461.03;;;10.80
70668;BMP280;58242;51.250;-1.118;2024-03-02T03:20:08;97450.72;;;10.78
70668;BMP280;58242;51.250;-1.118;2024-03-02T03:22:38;97446.53;;;10.74
70668;BMP280;58242;51.250;-1.118;2024-03-02T03:25:03;97434.72;;;10.68
70668;BMP280;58242;51.250;-1.118;2024-03-02T03:27:29;97430.53;;;10.60
70668;BMP280;58242;51.250;-1.118;2024-03-02T03:29:54;97442.38;;;10.53
70668;BMP280;58242;51.250;-1.118;2024-03-02T03:32:20;97425.22;;;10.47
70668;BMP280;58242;51.250;-1.118;2024-03-02T03:34:45;97435.53;;;10.42
70668;BMP280;58242;51.250;-1.118;2024-03-02T03:37:10;97426.75;;;10.38
70668;BMP280;58242;51.250;-1.118;2024-03-02T03:39:36;97417.63;;;10.35
70668;BMP280;58242;51.250;-1.118;2024-03-02T03:42:01;97410.75;;;10.34
70668;BMP280;58242;51.250;-1.118;2024-03-02T03:44:26;97402.75;;;10.34
70668;BMP280;58242;51.250;-1.118;2024-03-02T03:46:52;97387.88;;;10.33
70668;BMP280;58242;51.250;-1.118;2024-03-02T03:49:17;97392.44;;;10.33
70668;BMP280;58242;51.250;-1.118;2024-03-02T03:51:43;97385.97;;;10.34
70668;BMP280;58242;51.250;-1.118;2024-03-02T03:54:08;97372.59;;;10.34
70668;BMP280;58242;51.250;-1.118;2024-03-02T03:56:36;97385.19;;;10.33
70668;BMP280;58242;51.250;-1.118;2024-03-02T03:59:01;97368.81;;;10.31
70668;BMP280;58242;51.250;-1.118;2024-03-02T04:01:27;97382.53;;;10.30
70668;BMP280;58242;51.250;-1.118;2024-03-02T04:03:52;97391.69;;;10.29
70668;BMP280;58242;51.250;-1.118;2024-03-02T04:06:18;97386.34;;;10.29
70668;BMP280;58242;51.250;-1.118;2024-03-02T04:08:43;97387.09;;;10.29
70668;BMP280;58242;51.250;-1.118;2024-03-02T04:11:08;97392.84;;;10.31
70668;BMP280;58242;51.250;-1.118;2024-03-02T04:13:34;97382.91;;;10.35
70668;BMP280;58242;51.250;-1.118;2024-03-02T04:15:59;97386.69;;;10.41
70668;BMP280;58242;51.250;-1.118;2024-03-02T04:18:24;97370.31;;;10.43
70668;BMP280;58242;51.250;-1.118;2024-03-02T04:20:50;97371.06;;;10.43
70668;BMP280;58242;51.250;-1.118;2024-03-02T04:23:15;97363.44;;;10.45
70668;BMP280;58242;51.250;-1.118;2024-03-02T04:25:40;97355.06;;;10.46
70668;BMP280;58242;51.250;-1.118;2024-03-02T04:28:06;97349.69;;;10.50
70668;BMP280;58242;51.250;-1.118;2024-03-02T04:30:31;97350.81;;;10.52
70668;BMP280;58242;51.250;-1.118;2024-03-02T04:32:56;97354.66;;;10.55
70668;BMP280;58242;51.250;-1.118;2024-03-02T04:35:22;97353.47;;;10.56
70668;BMP280;58242;51.250;-1.118;2024-03-02T04:37:47;97346.25;;;10.56
70668;BMP280;58242;51.250;-1.118;2024-03-02T04:40:12;97359.22;;;10.58
70668;BMP280;58242;51.250;-1.118;2024-03-02T04:42:38;97354.63;;;10.58
70668;BMP280;58242;51.250;-1.118;2024-03-02T04:45:03;97349.66;;;10.60
70668;BMP280;58242;51.250;-1.118;2024-03-02T04:47:29;97344.31;;;10.60
70668;BMP280;58242;51.250;-1.118;2024-03-02T04:49:55;97354.22;;;10.59
70668;BMP280;58242;51.250;-1.118;2024-03-02T04:52:20;97345.44;;;10.59
70668;BMP280;58242;51.250;-1.118;2024-03-02T04:54:45;97365.69;;;10.60
70668;BMP280;58242;51.250;-1.118;2024-03-02T04:57:29;97348.53;;;10.58
70668;BMP280;58242;51.250;-1.118;2024-03-02T04:59:55;97348.91;;;10.56
70668;BMP280;58242;51.250;-1.118;2024-03-02T05:02:20;97348.91;;;10.56
70668;BMP280;58242;51.250;-1.118;2024-03-02T05:04:45;97349.31;;;10.51
70668;BMP280;58242;51.250;-1.118;2024-03-02T05:07:11;97347.06;;;10.43
70668;BMP280;58242;51.250;-1.118;2024-03-02T05:09:36;97345.53;;;10.39
70668;BMP280;58242;51.250;-1.118;2024-03-02T05:12:02;97357.38;;;10.34
70668;BMP280;58242;51.250;-1.118;2024-03-02T05:15:04;97351.25;;;10.34
70668;BMP280;58242;51.250;-1.118;2024-03-02T05:17:29;97344.41;;;10.36
70668;BMP280;58242;51.250;-1.118;2024-03-02T05:19:54;97363.47;;;10.38
70668;BMP280;58242;51.250;-1.118;2024-03-02T05:22:20;97357.34;;;10.41
70668;BMP280;58242;51.250;-1.118;2024-03-02T05:24:45;97351.22;;;10.44
70668;BMP280;58242;51.250;-1.118;2024-03-02T05:27:10;97348.19;;;10.45
70668;BMP280;58242;51.250;-1.118;2024-03-02T05:29:36;97340.53;;;10.44
70668;BMP280;58242;51.250;-1.118;2024-03-02T05:32:02;97350.09;;;10.42
70668;BMP280;58242;51.250;-1.118;2024-03-02T05:34:27;97352.41;;;10.43
70668;BMP280;58242;51.250;-1.118;2024-03-02T05:36:52;97353.53;;;10.42
70668;BMP280;58242;51.250;-1.118;2024-03-02T05:39:18;97349.31;;;10.41
70668;BMP280;58242;51.250;-1.118;2024-03-02T05:41:43;97348.19;;;10.42
70668;BMP280;58242;51.250;-1.118;2024-03-02T05:44:09;97349.31;;;10.41
70668;BMP280;58242;51.250;-1.118;2024-03-02T05:46:34;97344.75;;;10.42
70668;BMP280;58242;51.250;-1.118;2024-03-02T05:49:00;97344.00;;;10.41
70668;BMP280;58242;51.250;-1.118;2024-03-02T05:51:26;97343.59;;;10.46
70668;BMP280;58242;51.250;-1.118;2024-03-02T05:53:51;97352.38;;;10.50
70668;BMP280;58242;51.250;-1.118;2024-03-02T05:56:16;97342.03;;;10.52
70668;BMP280;58242;51.250;-1.118;2024-03-02T05:58:42;97345.47;;;10.52
70668;BMP280;58242;51.250;-1.118;2024-03-02T06:01:26;97347.00;;;10.53
70668;BMP280;58242;51.250;-1.118;2024-03-02T06:03:56;97342.03;;;10.52
70668;BMP280;58242;51.250;-1.118;2024-03-02T06:06:23;97344.72;;;10.52
70668;BMP280;58242;51.250;-1.118;2024-03-02T06:08:48;97350.81;;;10.56
70668;BMP280;58242;51.250;-1.118;2024-03-02T06:11:13;97351.19;;;10.58
70668;BMP280;58242;51.250;-1.118;2024-03-02T06:13:39;97343.19;;;10.58
70668;BMP280;58242;51.250;-1.118;2024-03-02T06:16:04;97334.44;;;10.54
70668;BMP280;58242;51.250;-1.118;2024-03-02T06:18:30;97345.13;;;10.47
70668;BMP280;58242;51.250;-1.118;2024-03-02T06:20:55;97346.31;;;10.39
70668;BMP280;58242;51.250;-1.118;2024-03-02T06:23:20;97342.47;;;10.33
70668;BMP280;58242;51.250;-1.118;2024-03-02T06:25:46;97348.25;;;10.28
70668;BMP280;58242;51.250;-1.118;2024-03-02T06:28:11;97357.38;;;10.27
70668;BMP280;58242;51.250;-1.118;2024-03-02T06:30:37;97361.97;;;10.27
70668;BMP280;58242;51.250;-1.118;2024-03-02T06:33:02;97356.63;;;10.27
70668;BMP280;58242;51.250;-1.118;2024-03-02T06:35:29;97355.09;;;10.26
70668;BMP280;58242;51.250;-1.118;2024-03-02T06:37:54;97366.16;;;10.25
70668;BMP280;58242;51.250;-1.118;2024-03-02T06:40:19;97358.16;;;10.25
70668;BMP280;58242;51.250;-1.118;2024-03-02T06:42:46;97358.94;;;10.25
70668;BMP280;58242;51.250;-1.118;2024-03-02T06:45:11;97372.28;;;10.25
70668;BMP280;58242;51.250;-1.118;2024-03-02T06:47:37;97365.41;;;10.24
70668;BMP280;58242;51.250;-1.118;2024-03-02T06:50:02;97379.88;;;10.23
70668;BMP280;58242;51.250;-1.118;2024-03-02T06:52:27;97382.53;;;10.23
70668;BMP280;58242;51.250;-1.118;2024-03-02T06:54:53;97382.53;;;10.23
70668;BMP280;58242;51.250;-1.118;2024-03-02T06:57:18;97387.50;;;10.25
70668;BMP280;58242;51.250;-1.118;2024-03-02T06:59:45;97397.78;;;10.29
70668;BMP280;58242;51.250;-1.118;2024-03-02T07:02:11;97395.88;;;10.33
70668;BMP280;58242;51.250;-1.118;2024-03-02T07:04:37;97394.34;;;10.36
70668;BMP280;58242;51.250;-1.118;2024-03-02T07:07:03;97396.25;;;10.35
70668;BMP280;58242;51.250;-1.118;2024-03-02T07:09:28;97406.19;;;10.35
70668;BMP280;58242;51.250;-1.118;2024-03-02T07:11:53;97402.38;;;10.32
70668;BMP280;58242;51.250;-1.118;2024-03-02T07:14:19;97411.13;;;10.29
70668;BMP280;58242;51.250;-1.118;2024-03-02T07:16:44;97419.13;;;10.26
70668;BMP280;58242;51.250;-1.118;2024-03-02T07:19:09;97415.72;;;10.22
70668;BMP280;58242;51.250;-1.118;2024-03-02T07:21:35;97426.03;;;10.20
70668;BMP280;58242;51.250;-1.118;2024-03-02T07:24:00;97436.69;;;10.20
70668;BMP280;58242;51.250;-1.118;2024-03-02T07:26:28;97430.19;;;10.18
70668;BMP280;58242;51.250;-1.118;2024-03-02T07:28:55;97436.72;;;10.13
70668;BMP280;58242;51.250;-1.118;2024-03-02T07:31:20;97437.44;;;10.07
70668;BMP280;58242;51.250;-1.118;2024-03-02T07:33:46;97437.44;;;10.04
70668;BMP280;58242;51.250;-1.118;2024-03-02T07:36:12;97449.66;;;10.01
70668;BMP280;58242;51.250;-1.118;2024-03-02T07:38:37;97448.88;;;9.97
70668;BMP280;58242;51.250;-1.118;2024-03-02T07:41:03;97452.31;;;9.94
70668;BMP280;58242;51.250;-1.118;2024-03-02T07:43:29;97460.31;;;9.91
70668;BMP280;58242;51.250;-1.118;2024-03-02T07:45:55;97460.69;;;9.90
70668;BMP280;58242;51.250;-1.118;2024-03-02T07:48:21;97478.59;;;9.86
70668;BMP280;58242;51.250;-1.118;2024-03-02T07:50:46;97489.25;;;9.82
70668;BMP280;58242;51.250;-1.118;2024-03-02T07:53:11;97493.06;;;9.78
70668;BMP280;58242;51.250;-1.118;2024-03-02T07:55:37;97503.38;;;9.79
70668;BMP280;58242;51.250;-1.118;2024-03-02T07:58:02;97507.56;;;9.91
70668;BMP280;58242;51.250;-1.118;2024-03-02T08:00:28;97509.84;;;9.99
70668;BMP280;58242;51.250;-1.118;2024-03-02T08:02:54;97512.94;;;10.01
70668;BMP280;58242;51.250;-1.118;2024-03-02T08:05:19;97523.59;;;10.01
70668;BMP280;58242;51.250;-1.118;2024-03-02T08:07:45;97521.69;;;10.05
70668;BMP280;58242;51.250;-1.118;2024-03-02T08:10:12;97530.09;;;10.10
70668;BMP280;58242;51.250;-1.118;2024-03-02T08:12:37;97531.59;;;10.14
70668;BMP280;58242;51.250;-1.118;2024-03-02T08:15:03;97540.41;;;10.25
70668;BMP280;58242;51.250;-1.118;2024-03-02T08:17:29;97551.09;;;10.35
70668;BMP280;58242;51.250;-1.118;2024-03-02T08:19:55;97553.00;;;10.38
70668;BMP280;58242;51.250;-1.118;2024-03-02T08:22:20;97553.78;;;10.39
70668;BMP280;58242;51.250;-1.118;2024-03-02T08:24:45;97558.75;;;10.40
70668;BMP280;58242;51.250;-1.118;2024-03-02T08:27:11;97567.88;;;10.43
70668;BMP280;58242;51.250;-1.118;2024-03-02T08:29:37;97572.44;;;10.49
70668;BMP280;58242;51.250;-1.118;2024-03-02T08:32:02;97569.41;;;10.57
70668;BMP280;58242;51.250;-1.118;2024-03-02T08:34:28;97582.00;;;10.63
70668;BMP280;58242;51.250;-1.118;2024-03-02T08:36:53;97588.50;;;10.73
70668;BMP280;58242;51.250;-1.118;2024-03-02T08:39:19;97587.72;;;10.82
70668;BMP280;58242;51.250;-1.118;2024-03-02T08:41:46;97585.03;;;10.86
70668;BMP280;58242;51.250;-1.118;2024-03-02T08:44:12;97586.22;;;10.88
70668;BMP280;58242;51.250;-1.118;2024-03-02T08:46:38;97587.34;;;10.91
70668;BMP280;58242;51.250;-1.118;2024-03-02T08:49:04;97587.31;;;10.97
70668;BMP280;58242;51.250;-1.118;2024-03-02T08:51:29;97581.59;;;11.02
70668;BMP280;58242;51.250;-1.118;2024-03-02T08:53:55;97575.47;;;11.09
70668;BMP280;58242;51.250;-1.118;2024-03-02T08:56:20;97580.84;;;11.15
70668;BMP280;58242;51.250;-1.118;2024-03-02T08:58:46;97583.09;;;11.27
70668;BMP280;58242;51.250;-1.118;2024-03-02T09:01:12;97581.53;;;11.43
70668;BMP280;58242;51.250;-1.118;2024-03-02T09:03:37;97581.06;;;11.68
70668;BMP280;58242;51.250;-1.118;2024-03-02T09:06:03;97584.81;;;11.95
70668;BMP280;58242;51.250;-1.118;2024-03-02T09:08:28;97596.13;;;12.19
70668;BMP280;58242;51.250;-1.118;2024-03-02T09:10:54;97597.22;;;12.31
70668;BMP280;58242;51.250;-1.118;2024-03-02T09:13:20;97597.13;;;12.42
70668;BMP280;58242;51.250;-1.118;2024-03-02T09:15:46;97601.31;;;12.49
70668;BMP280;58242;51.250;-1.118;2024-03-02T09:18:11;97597.47;;;12.50
70668;BMP280;58242;51.250;-1.118;2024-03-02T09:20:37;97606.28;;;12.48
70668;BMP280;58242;51.250;-1.118;2024-03-02T09:23:02;97615.50;;;12.43
70668;BMP280;58242;51.250;-1.118;2024-03-02T09:25:27;97615.53;;;12.40
70668;BMP280;58242;51.250;-1.118;2024-03-02T09:27:53;97619.38;;;12.35
70668;BMP280;58242;51.250;-1.118;2024-03-02T09:30:18;97620.56;;;12.31
70668;BMP280;58242;51.250;-1.118;2024-03-02T09:32:43;97628.97;;;12.30
70668;BMP280;58242;51.250;-1.118;2024-03-02T09:35:09;97632.06;;;12.28
70668;BMP280;58242;51.250;-1.118;2024-03-02T09:37:35;97625.13;;;12.31
70668;BMP280;58242;51.250;-1.118;2024-03-02T09:40:01;97629.34;;;12.31
70668;BMP280;58242;51.250;-1.118;2024-03-02T09:42:26;97638.47;;;12.37
70668;BMP280;58242;51.250;-1.118;2024-03-02T09:44:52;97628.13;;;12.46
70668;BMP280;58242;51.250;-1.118;2024-03-02T09:47:17;97632.25;;;12.61
70668;BMP280;58242;51.250;-1.118;2024-03-02T09:49:43;97630.53;;;12.87
70668;BMP280;58242;51.250;-1.118;2024-03-02T09:52:10;97628.69;;;13.23
70668;BMP280;58242;51.250;-1.118;2024-03-02T09:54:36;97630.25;;;13.57
70668;BMP280;58242;51.250;-1.118;2024-03-02T09:57:02;97625.84;;;13.76
70668;BMP280;58242;51.250;-1.118;2024-03-02T09:59:28;97638.00;;;13.87
70668;BMP280;58242;51.250;-1.118;2024-03-02T10:02:01;97638.69;;;13.95
70668;BMP280;58242;51.250;-1.118;2024-03-02T10:04:28;97636.81;;;13.92
70668;BMP280;58242;51.250;-1.118;2024-03-02T10:07:15;97643.38;;;13.87
70668;BMP280;58242;51.250;-1.118;2024-03-02T10:09:42;97653.28;;;13.94
70668;BMP280;58242;51.250;-1.118;2024-03-02T10:12:09;97648.56;;;14.04
70668;BMP280;58242;51.250;-1.118;2024-03-02T10:14:36;97653.78;;;14.15
70668;BMP280;58242;51.250;-1.118;2024-03-02T10:17:03;97654.50;;;14.19
70668;BMP280;58242;51.250;-1.118;2024-03-02T10:19:29;97652.22;;;14.17
70668;BMP280;58242;51.250;-1.118;2024-03-02T10:21:59;97652.97;;;14.18
70668;BMP280;58242;51.250;-1.118;2024-03-02T10:24:24;97649.66;;;14.36
70668;BMP280;58242;51.250;-1.118;2024-03-02T10:26:51;97655.59;;;14.54
70668;BMP280;58242;51.250;-1.118;2024-03-02T10:29:17;97666.94;;;14.64
70668;BMP280;58242;51.250;-1.118;2024-03-02T10:31:46;97666.47;;;14.72
70668;BMP280;58242;51.250;-1.118;2024-03-02T10:34:12;97662.03;;;14.85
70668;BMP280;58242;51.250;-1.118;2024-03-02T10:36:41;97671.09;;;14.98
70668;BMP280;58242;51.250;-1.118;2024-03-02T10:39:07;97660.72;;;14.96
70668;BMP280;58242;51.250;-1.118;2024-03-02T10:41:34;97668.00;;;14.99
70668;BMP280;58242;51.250;-1.118;2024-03-02T10:44:02;97669.66;;;15.16
70668;BMP280;58242;51.250;-1.118;2024-03-02T10:46:29;97680.59;;;15.28
70668;BMP280;58242;51.250;-1.118;2024-03-02T10:48:56;97682.84;;;15.33
70668;BMP280;58242;51.250;-1.118;2024-03-02T10:51:24;97682.06;;;15.32
70668;BMP280;58242;51.250;-1.118;2024-03-02T10:53:49;97679.44;;;15.29
70668;BMP280;58242;51.250;-1.118;2024-03-02T10:56:21;97696.47;;;15.23
70668;BMP280;58242;51.250;-1.118;2024-03-02T10:58:51;97692.03;;;15.09
70668;BMP280;58242;51.250;-1.118;2024-03-02T11:01:19;97684.09;;;15.03
70668;BMP280;58242;51.250;-1.118;2024-03-02T11:03:45;97697.16;;;15.01
70668;BMP280;58242;51.250;-1.118;2024-03-02T11:06:11;97695.34;;;14.94
70668;BMP280;58242;51.250;-1.118;2024-03-02T11:08:38;97700.03;;;14.87
70668;BMP280;58242;51.250;-1.118;2024-03-02T11:11:15;97698.44;;;14.93
70668;BMP280;58242;51.250;-1.118;2024-03-02T11:13:42;97692.94;;;15.03
70668;BMP280;58242;51.250;-1.118;2024-03-02T11:16:33;97694.41;;;15.30
70668;BMP280;58242;51.250;-1.118;2024-03-02T11:19:03;97698.91;;;15.58
70668;BMP280;58242;51.250;-1.118;2024-03-02T11:21:29;97701.91;;;15.64
70668;BMP280;58242;51.250;-1.118;2024-03-02T11:23:54;97710.41;;;15.62
70668;BMP280;58242;51.250;-1.118;2024-03-02T11:26:21;97702.50;;;15.52
70668;BMP280;58242;51.250;-1.118;2024-03-02T11:28:47;97718.03;;;15.41
70668;BMP280;58242;51.250;-1.118;2024-03-02T11:31:12;97720.19;;;15.27
70668;BMP280;58242;51.250;-1.118;2024-03-02T11:33:38;97717.69;;;15.17
70668;BMP280;58242;51.250;-1.118;2024-03-02T11:36:06;97719.81;;;15.03
70668;BMP280;58242;51.250;-1.118;2024-03-02T11:38:33;97721.91;;;14.92
70668;BMP280;58242;51.250;-1.118;2024-03-02T11:41:07;97728.56;;;15.10
70668;BMP280;58242;51.250;-1.118;2024-03-02T11:43:37;97724.03;;;15.26
70668;BMP280;58242;51.250;-1.118;2024-03-02T11:46:05;97728.16;;;15.34
70668;BMP280;58242;51.250;-1.118;2024-03-02T11:48:35;97726.66;;;15.33
70668;BMP280;58242;51.250;-1.118;2024-03-02T11:51:01;97729.75;;;15.32
70668;BMP280;58242;51.250;-1.118;2024-03-02T11:53:28;97726.41;;;15.47
70668;BMP280;58242;51.250;-1.118;2024-03-02T11:55:58;97711.69;;;16.37
70668;BMP280;58242;51.250;-1.118;2024-03-02T11:58:23;97717.94;;;17.53
70668;BMP280;58242;51.250;-1.118;2024-03-02T12:00:53;97717.47;;;18.97
70668;BMP280;58242;51.250;-1.118;2024-03-02T12:03:22;97704.72;;;20.24
70668;BMP280;58242;51.250;-1.118;2024-03-02T12:05:49;97706.06;;;20.82
70668;BMP280;58242;51.250;-1.118;2024-03-02T12:08:15;97715.25;;;21.06
70668;BMP280;58242;51.250;-1.118;2024-03-02T12:10:41;97708.72;;;21.03
70668;BMP280;58242;51.250;-1.118;2024-03-02T12:13:07;97711.22;;;21.10
70668;BMP280;58242;51.250;-1.118;2024-03-02T12:15:34;97716.72;;;21.27
70668;BMP280;58242;51.250;-1.118;2024-03-02T12:18:01;97713.66;;;21.17
70668;BMP280;58242;51.250;-1.118;2024-03-02T12:20:30;97717.31;;;21.23
70668;BMP280;58242;51.250;-1.118;2024-03-02T12:23:01;97712.91;;;21.55
70668;BMP280;58242;51.250;-1.118;2024-03-02T12:25:27;97717.88;;;22.12
70668;BMP280;58242;51.250;-1.118;2024-03-02T12:27:57;97724.53;;;22.63
70668;BMP280;58242;51.250;-1.118;2024-03-02T12:30:23;97711.69;;;23.22
70668;BMP280;58242;51.250;-1.118;2024-03-02T12:32:49;97726.56;;;23.52
70668;BMP280;58242;51.250;-1.118;2024-03-02T12:35:15;97725.78;;;23.20
70668;BMP280;58242;51.250;-1.118;2024-03-02T12:37:43;97734.84;;;22.68
70668;BMP280;58242;51.250;-1.118;2024-03-02T12:40:10;97721.50;;;22.44
70668;BMP280;58242;51.250;-1.118;2024-03-02T12:42:37;97729.34;;;22.77
70668;BMP280;58242;51.250;-1.118;2024-03-02T12:45:02;97734.69;;;22.72
70668;BMP280;58242;51.250;-1.118;2024-03-02T12:47:29;97735.13;;;22.79
70668;BMP280;58242;51.250;-1.118;2024-03-02T12:49:54;97728.06;;;23.13
70668;BMP280;58242;51.250;-1.118;2024-03-02T12:52:21;97727.09;;;23.74
70668;BMP280;58242;51.250;-1.118;2024-03-02T12:54:46;97732.13;;;24.35
70668;BMP280;58242;51.250;-1.118;2024-03-02T12:57:17;97727.47;;;24.87
70668;BMP280;58242;51.250;-1.118;2024-03-02T12:59:45;97725.75;;;25.45
70668;BMP280;58242;51.250;-1.118;2024-03-02T13:02:17;97734.13;;;26.04
70668;BMP280;58242;51.250;-1.118;2024-03-02T13:04:42;97734.41;;;26.64
70668;BMP280;58242;51.250;-1.118;2024-03-02T13:07:07;97736.88;;;27.36
70668;BMP280;58242;51.250;-1.118;2024-03-02T13:09:33;97726.34;;;27.95
70668;BMP280;58242;51.250;-1.118;2024-03-02T13:12:00;97738.09;;;27.96
70668;BMP280;58242;51.250;-1.118;2024-03-02T13:14:25;97737.91;;;27.69
70668;BMP280;58242;51.250;-1.118;2024-03-02T13:16:51;97749.22;;;27.51
70668;BMP280;58242;51.250;-1.118;2024-03-02T13:19:18;97736.50;;;26.99
70668;BMP280;58242;51.250;-1.118;2024-03-02T13:21:46;97754.22;;;26.20
70668;BMP280;58242;51.250;-1.118;2024-03-02T13:24:11;97748.59;;;25.42
70668;BMP280;58242;51.250;-1.118;2024-03-02T13:26:37;97754.31;;;24.88
70668;BMP280;58242;51.250;-1.118;2024-03-02T13:29:02;97749.97;;;24.68
70668;BMP280;58242;51.250;-1.118;2024-03-02T13:31:27;97751.81;;;24.39
70668;BMP280;58242;51.250;-1.118;2024-03-02T13:33:53;97760.38;;;24.09
70668;BMP280;58242;51.250;-1.118;2024-03-02T13:36:18;97757.84;;;23.74
70668;BMP280;58242;51.250;-1.118;2024-03-02T13:38:44;97769.34;;;23.38
70668;BMP280;58242;51.250;-1.118;2024-03-02T13:41:10;97765.78;;;22.97
70668;BMP280;58242;51.250;-1.118;2024-03-02T13:43:36;97751.94;;;22.60
70668;BMP280;58242;51.250;-1.118;2024-03-02T13:46:03;97772.31;;;22.29
70668;BMP280;58242;51.250;-1.118;2024-03-02T13:48:29;97759.25;;;21.98
70668;BMP280;58242;51.250;-1.118;2024-03-02T13:50:55;97761.88;;;21.72